Time;durP1;ratioP1;P1;durP2;ratioP2;P2;SDS_P1;SDS_P2;PMS_P1;PMS_P2;Temp;Humidity;BMP_temperature;BMP_pressure;BME280_temperature;BME280_humidity;BME280_pressure;Samples;Min_cycle;Max_cycle;Signal;HPM_P1;HPM_P2
2022/10/28 00:02:24;;;;;;;;;;;14.70;99.90;;;;;;5092178;28;19951;-82
2022/10/28 00:04:50;;;;;;;;;;;14.70;99.90;;;;;;5092347;28;20463;-77
2022/10/28 00:07:15;;;;;;;;;;;14.70;99.90;;;;;;5093956;28;19920;-83
2022/10/28 00:09:41;;;;;;;;;;;14.80;99.90;;;;;;5092519;28;20451;-82
2022/10/28 00:12:07;;;;;;;;;;;14.70;99.90;;;;;;5092188;28;20015;-80
2022/10/28 00:14:32;;;;;;;;;;;14.70;99.90;;;;;;5075425;28;19919;-81
2022/10/28 00:16:58;;;;;;;;;;;15.70;99.90;;;;;;5092050;28;19936;-80
2022/10/28 00:19:23;;;;;;;;;;;14.70;99.90;;;;;;5092851;28;19920;-76
2022/10/28 00:21:49;;;;;;;;;;;14.60;99.90;;;;;;5075912;28;19927;-82
2022/10/28 00:24:14;;;;;;;;;;;14.90;99.90;;;;;;5093028;28;19939;-81
2022/10/28 00:26:41;;;;;;;;;;;14.80;99.90;;;;;;5090970;28;19986;-83
2022/10/28 00:29:08;;;;;;;;;;;15.60;99.90;;;;;;5091974;28;19931;-81
2022/10/28 00:31:34;;;;;;;;;;;14.80;99.90;;;;;;5091846;28;19920;-81
2022/10/28 00:34:01;;;;;;;;;;;14.80;99.90;;;;;;5074869;28;19920;-78
2022/10/28 00:36:28;;;;;;;;;;;15.00;99.90;;;;;;5075205;28;20283;-82
2022/10/28 00:38:54;;;;;;;;;;;14.80;99.90;;;;;;5092185;28;19924;-81
2022/10/28 00:41:21;;;;;;;;;;;14.80;99.90;;;;;;5074878;28;19924;-81
2022/10/28 00:43:49;;;;;;;;;;;14.80;99.90;;;;;;5074706;28;19919;-81
2022/10/28 00:46:30;;;;;;;;;;;14.90;99.90;;;;;;5092199;28;19924;-81
2022/10/28 00:49:03;;;;;;;;;;;14.80;99.90;;;;;;5088457;28;19959;-81
2022/10/28 00:51:29;;;;;;;;;;;14.80;99.90;;;;;;5092271;28;19924;-80
2022/10/28 00:53:55;;;;;;;;;;;15.90;99.90;;;;;;5074772;28;19926;-80
2022/10/28 00:56:22;;;;;;;;;;;14.90;99.90;;;;;;5092399;28;20003;-80
2022/10/28 00:58:48;;;;;;;;;;;14.90;99.90;;;;;;5074796;28;19978;-79
2022/10/28 01:01:14;;;;;;;;;;;14.90;99.90;;;;;;5087163;28;19971;-81
2022/10/28 01:03:40;;;;;;;;;;;15.00;99.90;;;;;;5090328;28;19998;-81
2022/10/28 01:06:06;;;;;;;;;;;15.00;99.90;;;;;;5091214;28;20380;-80
2022/10/28 01:08:32;;;;;;;;;;;15.00;99.90;;;;;;5091729;28;19920;-78
2022/10/28 01:11:07;;;;;;;;;;;15.00;99.90;;;;;;5093667;28;20283;-76
2022/10/28 01:13:57;;;;;;;;;;;14.90;99.90;;;;;;5092050;28;19970;-75
2022/10/28 01:16:29;;;;;;;;;;;14.90;99.90;;;;;;5083577;28;19989;-76
2022/10/28 01:19:06;;;;;;;;;;;14.90;99.90;;;;;;5088937;28;19920;-77
2022/10/28 01:21:38;;;;;;;;;;;14.90;99.90;;;;;;5073445;28;19947;-78
2022/10/28 01:24:16;;;;;;;;;;;14.90;99.90;;;;;;5090227;28;20054;-79
2022/10/28 01:26:55;;;;;;;;;;;14.90;99.90;;;;;;5091046;28;19926;-78
2022/10/28 01:29:44;;;;;;;;;;;14.90;99.90;;;;;;5069119;28;19920;-80
2022/10/28 01:32:29;;;;;;;;;;;14.80;99.90;;;;;;5058176;28;19924;-78
2022/10/28 01:34:58;;;;;;;;;;;14.90;99.90;;;;;;5084187;28;19943;-81
2022/10/28 01:37:33;;;;;;;;;;;14.80;99.90;;;;;;5090600;28;19920;-77
2022/10/28 01:40:22;;;;;;;;;;;14.80;99.90;;;;;;5090817;28;19943;-80
2022/10/28 01:42:54;;;;;;;;;;;14.80;99.90;;;;;;5070337;28;19920;-80
2022/10/28 01:45:24;;;;;;;;;;;14.70;99.90;;;;;;5072966;28;19923;-81
2022/10/28 01:48:09;;;;;;;;;;;14.70;99.90;;;;;;5091686;28;20022;-81
2022/10/28 01:50:35;;;;;;;;;;;14.60;99.90;;;;;;5089650;28;20377;-77
2022/10/28 01:53:03;;;;;;;;;;;14.60;99.90;;;;;;5090850;28;20015;-78
2022/10/28 01:55:31;;;;;;;;;;;15.00;99.90;;;;;;5090563;28;19979;-81
2022/10/28 01:57:58;;;;;;;;;;;15.60;99.90;;;;;;5090345;28;20008;-80
2022/10/28 02:00:25;;;;;;;;;;;14.60;99.90;;;;;;5086626;28;19981;-76
2022/10/28 02:02:50;;;;;;;;;;;14.50;99.90;;;;;;5091201;28;20282;-79
2022/10/28 02:05:35;;;;;;;;;;;14.60;99.90;;;;;;5090603;28;19920;-80
2022/10/28 02:08:21;;;;;;;;;;;14.60;99.90;;;;;;5072566;28;19920;-78
2022/10/28 02:10:50;;;;;;;;;;;14.50;99.90;;;;;;5091323;28;19920;-80
2022/10/28 02:13:17;;;;;;;;;;;14.50;99.90;;;;;;5090209;28;19920;-79
2022/10/28 02:15:54;;;;;;;;;;;14.50;99.90;;;;;;5091377;28;19924;-79
2022/10/28 02:18:34;;;;;;;;;;;14.50;99.90;;;;;;5083395;28;19964;-81
2022/10/28 02:21:02;;;;;;;;;;;14.50;99.90;;;;;;5090263;28;20348;-80
2022/10/28 02:23:47;;;;;;;;;;;14.40;99.90;;;;;;5090901;28;20382;-81
2022/10/28 02:26:18;;;;;;;;;;;14.40;99.90;;;;;;5089801;28;19924;-78
2022/10/28 02:28:48;;;;;;;;;;;14.40;99.90;;;;;;5090362;28;20412;-81
2022/10/28 02:31:20;;;;;;;;;;;14.40;99.90;;;;;;5073151;28;20383;-81
2022/10/28 02:33:50;;;;;;;;;;;14.40;99.90;;;;;;5073402;28;19920;-79
2022/10/28 02:36:18;;;;;;;;;;;14.40;99.90;;;;;;5074009;28;19920;-82
2022/10/28 02:38:45;;;;;;;;;;;14.40;99.90;;;;;;5090666;28;20273;-77
2022/10/28 02:41:26;;;;;;;;;;;15.80;99.90;;;;;;5089805;28;19924;-77
2022/10/28 02:43:53;;;;;;;;;;;13.70;99.90;;;;;;5073386;28;19926;-76
2022/10/28 02:46:19;;;;;;;;;;;14.40;99.90;;;;;;5089925;28;19920;-81
2022/10/28 02:48:47;;;;;;;;;;;14.30;99.90;;;;;;5073787;28;20433;-81
2022/10/28 02:51:15;;;;;;;;;;;14.30;99.90;;;;;;5090387;28;19967;-83
2022/10/28 02:53:57;;;;;;;;;;;14.30;99.90;;;;;;5068857;28;19920;-81
2022/10/28 02:56:23;;;;;;;;;;;14.30;99.90;;;;;;5088023;28;20069;-82
2022/10/28 02:58:48;;;;;;;;;;;14.30;99.90;;;;;;5072020;28;20383;-80
2022/10/28 03:01:14;;;;;;;;;;;14.30;99.90;;;;;;5084814;28;19927;-81
2022/10/28 03:03:40;;;;;;;;;;;14.30;99.90;;;;;;5075139;28;19927;-80
2022/10/28 03:06:06;;;;;;;;;;;14.30;99.90;;;;;;5090857;28;19924;-80
2022/10/28 03:08:31;;;;;;;;;;;14.30;99.90;;;;;;5097719;28;20079;-80
2022/10/28 03:10:57;;;;;;;;;;;14.30;99.90;;;;;;5082861;28;19927;-82
2022/10/28 03:13:22;;;;;;;;;;;14.30;99.90;;;;;;5074216;28;19969;-80
2022/10/28 03:15:48;;;;;;;;;;;14.30;99.90;;;;;;5090477;28;19981;-81
2022/10/28 03:18:13;;;;;;;;;;;14.50;99.90;;;;;;5088310;28;20367;-81
2022/10/28 03:20:39;;;;;;;;;;;14.20;99.90;;;;;;5088472;28;19920;-81
2022/10/28 03:23:04;;;;;;;;;;;14.30;99.90;;;;;;5087721;28;19924;-80
2022/10/28 03:25:30;;;;;;;;;;;14.20;99.90;;;;;;5088567;28;19920;-79
2022/10/28 03:27:55;;;;;;;;;;;15.10;99.90;;;;;;5087914;28;19967;-78
2022/10/28 03:30:21;;;;;;;;;;;14.20;99.90;;;;;;5087899;28;19916;-81
2022/10/28 03:32:47;;;;;;;;;;;14.30;99.90;;;;;;5087778;28;19943;-82
2022/10/28 03:35:12;;;;;;;;;;;14.20;99.90;;;;;;5087663;28;20371;-82
2022/10/28 03:37:42;;;;;;;;;;;14.10;99.90;;;;;;5087606;28;19924;-82
2022/10/28 03:40:08;;;;;;;;;;;14.10;99.90;;;;;;5091044;28;19924;-82
2022/10/28 03:42:34;;;;;;;;;;;14.10;99.90;;;;;;5091201;28;20283;-80
2022/10/28 03:44:59;;;;;;;;;;;14.10;99.90;;;;;;5092820;28;19920;-81
2022/10/28 03:47:25;;;;;;;;;;;14.10;99.90;;;;;;5093058;28;19916;-80
2022/10/28 03:49:50;;;;;;;;;;;14.10;99.90;;;;;;5092575;28;19927;-80
2022/10/28 03:52:16;;;;;;;;;;;14.40;99.90;;;;;;5094164;28;19923;-80
2022/10/28 03:54:41;;;;;;;;;;;14.10;99.90;;;;;;5076185;28;19916;-80
2022/10/28 03:57:08;;;;;;;;;;;14.10;99.90;;;;;;5092206;28;19986;-78
2022/10/28 03:59:33;;;;;;;;;;;14.00;99.90;;;;;;5089377;28;19983;-80
2022/10/28 04:01:59;;;;;;;;;;;14.00;99.90;;;;;;5090654;28;20003;-80
2022/10/28 04:04:25;;;;;;;;;;;14.00;99.90;;;;;;5091787;28;20375;-82
2022/10/28 04:06:50;;;;;;;;;;;14.70;99.90;;;;;;5075733;28;19941;-82
2022/10/28 04:09:16;;;;;;;;;;;14.20;99.90;;;;;;5090681;28;19961;-82
2022/10/28 04:11:41;;;;;;;;;;;13.90;99.90;;;;;;5074739;28;19943;-78
2022/10/28 04:14:07;;;;;;;;;;;13.90;99.90;;;;;;5092232;28;19977;-78
2022/10/28 04:16:32;;;;;;;;;;;13.90;99.90;;;;;;5075082;28;19920;-80
2022/10/28 04:18:58;;;;;;;;;;;13.90;99.90;;;;;;5092199;28;19977;-77
2022/10/28 04:21:24;;;;;;;;;;;13.80;99.90;;;;;;5092122;28;20343;-80
2022/10/28 04:23:49;;;;;;;;;;;13.80;99.90;;;;;;5092941;28;19931;-80
2022/10/28 04:26:15;;;;;;;;;;;13.80;99.90;;;;;;5092945;28;20007;-78
2022/10/28 04:28:40;;;;;;;;;;;13.80;99.90;;;;;;5074770;28;20039;-80
2022/10/28 04:31:06;;;;;;;;;;;13.80;99.90;;;;;;5092887;28;19920;-78
2022/10/28 04:33:31;;;;;;;;;;;14.20;99.90;;;;;;5090849;28;20007;-80
2022/10/28 04:35:57;;;;;;;;;;;13.70;99.90;;;;;;5092253;28;19924;-82
2022/10/28 04:38:23;;;;;;;;;;;13.70;99.90;;;;;;5092350;28;19920;-81
2022/10/28 04:40:48;;;;;;;;;;;13.70;99.90;;;;;;5074596;28;19977;-81
2022/10/28 04:43:14;;;;;;;;;;;13.70;99.90;;;;;;5104728;28;19920;-79
2022/10/28 04:45:40;;;;;;;;;;;13.70;99.90;;;;;;5079283;28;20396;-79
2022/10/28 04:48:07;;;;;;;;;;;13.70;99.90;;;;;;5093072;28;19920;-79
2022/10/28 04:50:32;;;;;;;;;;;14.80;99.90;;;;;;5092152;28;19920;-82
2022/10/28 04:52:58;;;;;;;;;;;13.70;99.90;;;;;;5074377;28;19969;-81
2022/10/28 04:55:23;;;;;;;;;;;14.40;99.90;;;;;;5087495;28;19973;-76
2022/10/28 04:57:56;;;;;;;;;;;13.60;99.90;;;;;;5092089;28;19989;-80
2022/10/28 05:00:22;;;;;;;;;;;13.60;99.90;;;;;;5085999;28;20014;-81
2022/10/28 05:02:47;;;;;;;;;;;13.60;99.90;;;;;;5074628;28;19998;-82
2022/10/28 05:05:13;;;;;;;;;;;13.60;99.90;;;;;;5091967;28;20351;-79
2022/10/28 05:07:39;;;;;;;;;;;13.60;99.90;;;;;;5073927;28;20397;-80
2022/10/28 05:10:04;;;;;;;;;;;14.50;99.90;;;;;;5091439;28;19999;-76
2022/10/28 05:12:30;;;;;;;;;;;13.60;99.90;;;;;;5091694;28;19927;-81
2022/10/28 05:14:55;;;;;;;;;;;13.60;99.90;;;;;;5073566;28;19923;-79
2022/10/28 05:17:21;;;;;;;;;;;15.00;99.90;;;;;;5091411;28;19977;-77
2022/10/28 05:19:47;;;;;;;;;;;14.40;99.90;;;;;;5090771;28;19972;-80
2022/10/28 05:22:12;;;;;;;;;;;13.50;99.90;;;;;;5090403;28;19986;-78
2022/10/28 05:24:38;;;;;;;;;;;13.60;99.90;;;;;;5092777;28;19930;-78
2022/10/28 05:27:03;;;;;;;;;;;13.60;99.90;;;;;;5087822;28;19920;-81
2022/10/28 05:29:29;;;;;;;;;;;13.60;99.90;;;;;;5090193;28;20380;-81
2022/10/28 05:31:55;;;;;;;;;;;13.60;99.90;;;;;;5091085;28;19919;-81
2022/10/28 05:34:20;;;;;;;;;;;13.50;99.90;;;;;;5091452;28;20003;-81
2022/10/28 05:36:46;;;;;;;;;;;13.60;99.90;;;;;;5073342;28;20287;-81
2022/10/28 05:39:12;;;;;;;;;;;13.50;99.90;;;;;;5080728;28;19973;-80
2022/10/28 05:41:38;;;;;;;;;;;13.50;99.90;;;;;;5090586;28;19927;-80
2022/10/28 05:44:04;;;;;;;;;;;14.00;99.90;;;;;;5073202;28;19931;-80
2022/10/28 05:46:29;;;;;;;;;;;13.50;99.90;;;;;;5091311;28;19924;-79
2022/10/28 05:48:55;;;;;;;;;;;13.50;99.90;;;;;;5091959;28;20025;-81
2022/10/28 05:51:20;;;;;;;;;;;13.50;99.90;;;;;;5090280;28;19916;-81
2022/10/28 05:53:46;;;;;;;;;;;13.50;99.90;;;;;;5074693;28;19920;-79
2022/10/28 05:56:11;;;;;;;;;;;13.50;99.90;;;;;;5092403;28;20312;-81
2022/10/28 05:58:37;;;;;;;;;;;13.50;99.90;;;;;;5090465;28;19941;-81
2022/10/28 06:01:05;;;;;;;;;;;13.50;99.90;;;;;;5083317;28;19972;-80
2022/10/28 06:03:30;;;;;;;;;;;13.50;99.90;;;;;;5089686;28;19924;-81
2022/10/28 06:05:56;;;;;;;;;;;13.30;99.90;;;;;;5089746;28;20029;-79
2022/10/28 06:08:22;;;;;;;;;;;13.40;99.90;;;;;;5072335;28;20060;-76
2022/10/28 06:10:52;;;;;;;;;;;13.40;99.90;;;;;;5089571;28;20018;-79
2022/10/28 06:13:18;;;;;;;;;;;13.50;99.90;;;;;;5073647;28;19920;-76
2022/10/28 06:15:43;;;;;;;;;;;13.40;99.90;;;;;;5090653;28;20400;-80
2022/10/28 06:18:09;;;;;;;;;;;14.30;99.90;;;;;;5091143;28;19920;-78
2022/10/28 06:20:34;;;;;;;;;;;13.40;99.90;;;;;;5104321;28;19919;-79
2022/10/28 06:23:00;;;;;;;;;;;13.40;99.90;;;;;;5074032;28;20010;-80
2022/10/28 06:25:26;;;;;;;;;;;13.30;99.90;;;;;;5089667;28;19920;-79
2022/10/28 06:27:52;;;;;;;;;;;13.40;99.90;;;;;;5074194;28;20030;-81
2022/10/28 06:30:17;;;;;;;;;;;13.90;99.90;;;;;;5091638;28;20409;-80
2022/10/28 06:32:43;;;;;;;;;;;13.40;99.90;;;;;;5090595;28;19970;-80
2022/10/28 06:35:09;;;;;;;;;;;13.40;99.90;;;;;;5089385;28;20003;-80
2022/10/28 06:37:34;;;;;;;;;;;13.40;99.90;;;;;;5090842;28;19927;-80
2022/10/28 06:40:00;;;;;;;;;;;13.40;99.90;;;;;;5090350;28;19966;-78
2022/10/28 06:42:25;;;;;;;;;;;13.50;99.90;;;;;;5072094;28;19959;-81
2022/10/28 06:44:51;;;;;;;;;;;13.40;99.90;;;;;;5072393;28;19920;-80
2022/10/28 06:47:16;;;;;;;;;;;13.40;99.90;;;;;;5087929;28;19965;-80
2022/10/28 06:49:42;;;;;;;;;;;13.60;99.90;;;;;;5088392;28;19976;-79
2022/10/28 06:52:07;;;;;;;;;;;13.40;99.90;;;;;;5088603;28;20525;-78
2022/10/28 06:54:33;;;;;;;;;;;13.40;99.90;;;;;;5088194;28;19923;-80
2022/10/28 06:56:58;;;;;;;;;;;13.50;99.90;;;;;;5088508;28;19927;-81
2022/10/28 06:59:24;;;;;;;;;;;13.40;99.90;;;;;;5087086;28;20403;-80
2022/10/28 07:01:50;;;;;;;;;;;13.50;99.90;;;;;;5082376;28;19972;-81
2022/10/28 07:04:15;;;;;;;;;;;13.50;99.90;;;;;;5089163;28;19927;-81
2022/10/28 07:06:40;;;;;;;;;;;14.60;99.90;;;;;;5070920;28;20386;-80
2022/10/28 07:09:06;;;;;;;;;;;14.50;99.90;;;;;;5088204;28;19961;-81
2022/10/28 07:11:32;;;;;;;;;;;13.50;99.90;;;;;;5088122;28;20014;-83
2022/10/28 07:13:57;;;;;;;;;;;13.50;99.90;;;;;;5071353;28;19955;-78
2022/10/28 07:16:23;;;;;;;;;;;15.00;99.90;;;;;;5089482;28;20381;-80
2022/10/28 07:18:48;;;;;;;;;;;13.60;99.90;;;;;;5074954;28;19920;-80
2022/10/28 07:21:14;;;;;;;;;;;13.60;99.90;;;;;;5091852;28;19927;-81
2022/10/28 07:23:39;;;;;;;;;;;14.70;99.90;;;;;;5092024;28;19924;-81
2022/10/28 07:26:05;;;;;;;;;;;13.70;99.90;;;;;;5093623;28;20286;-82
2022/10/28 07:28:30;;;;;;;;;;;13.70;99.90;;;;;;5073939;28;19981;-79
2022/10/28 07:31:00;;;;;;;;;;;13.70;99.90;;;;;;5078233;28;19927;-80
2022/10/28 07:33:25;;;;;;;;;;;13.70;99.90;;;;;;5073835;28;20298;-81
2022/10/28 07:35:51;;;;;;;;;;;14.40;99.90;;;;;;5075482;28;19924;-77
2022/10/28 07:38:17;;;;;;;;;;;13.80;99.90;;;;;;5075052;28;19919;-80
2022/10/28 07:40:42;;;;;;;;;;;13.80;99.90;;;;;;5093341;28;19969;-80
2022/10/28 07:43:08;;;;;;;;;;;13.80;99.90;;;;;;5075143;28;20112;-79
2022/10/28 07:45:34;;;;;;;;;;;13.90;99.90;;;;;;5092736;28;19924;-80
2022/10/28 07:47:59;;;;;;;;;;;13.90;99.90;;;;;;5076033;28;19930;-80
2022/10/28 07:50:25;;;;;;;;;;;14.00;99.90;;;;;;5091424;28;20391;-80
2022/10/28 07:52:50;;;;;;;;;;;14.00;99.90;;;;;;5092842;28;19920;-80
2022/10/28 07:55:16;;;;;;;;;;;14.40;99.90;;;;;;5107847;28;20014;-77
2022/10/28 07:57:41;;;;;;;;;;;14.10;99.90;;;;;;5095116;28;19926;-81
2022/10/28 08:00:07;;;;;;;;;;;15.10;99.90;;;;;;5072603;28;20080;-80
2022/10/28 08:02:32;;;;;;;;;;;14.20;99.90;;;;;;5075261;28;19970;-80
2022/10/28 08:05:00;;;;;;;;;;;14.20;99.90;;;;;;5091392;28;20337;-80
2022/10/28 08:07:26;;;;;;;;;;;14.40;99.90;;;;;;5092582;28;19943;-79
2022/10/28 08:09:52;;;;;;;;;;;14.40;99.90;;;;;;5091596;28;20367;-78
2022/10/28 08:12:17;;;;;;;;;;;14.50;99.90;;;;;;5093479;28;19920;-80
2022/10/28 08:14:43;;;;;;;;;;;15.70;99.90;;;;;;5075542;28;19920;-79
2022/10/28 08:17:08;;;;;;;;;;;14.60;99.90;;;;;;5073522;28;19923;-80
2022/10/28 08:19:34;;;;;;;;;;;15.20;99.90;;;;;;5091486;28;19959;-79
2022/10/28 08:22:01;;;;;;;;;;;14.80;99.90;;;;;;5075032;28;20337;-80
2022/10/28 08:24:26;;;;;;;;;;;15.30;99.90;;;;;;5089013;28;20377;-80
2022/10/28 08:26:52;;;;;;;;;;;14.90;99.90;;;;;;5093308;28;20023;-81
2022/10/28 08:29:17;;;;;;;;;;;14.90;99.90;;;;;;5074940;28;19962;-81
2022/10/28 08:31:43;;;;;;;;;;;15.90;99.90;;;;;;5074307;28;20322;-81
2022/10/28 08:34:08;;;;;;;;;;;15.10;99.90;;;;;;5092958;28;19920;-79
2022/10/28 08:36:34;;;;;;;;;;;16.20;99.90;;;;;;5093147;28;20014;-81
2022/10/28 08:39:00;;;;;;;;;;;15.40;99.90;;;;;;5091667;28;19924;-81
2022/10/28 08:41:43;;;;;;;;;;;16.50;99.90;;;;;;4384273;28;10000775;-80
2022/10/28 08:44:09;;;;;;;;;;;15.40;99.90;;;;;;5072444;28;20379;-79
2022/10/28 08:46:47;;;;;;;;;;;15.40;99.90;;;;;;5090494;28;19944;-80
2022/10/28 08:49:15;;;;;;;;;;;16.20;99.90;;;;;;5072141;28;19924;-80
2022/10/28 08:51:43;;;;;;;;;;;16.00;99.90;;;;;;5072502;28;19920;-81
2022/10/28 08:54:15;;;;;;;;;;;15.60;99.90;;;;;;5089829;28;19931;-81
2022/10/28 08:56:44;;;;;;;;;;;15.80;99.90;;;;;;5088920;28;20012;-82
2022/10/28 08:59:18;;;;;;;;;;;15.80;99.90;;;;;;5088737;28;19923;-82
2022/10/28 09:01:52;;;;;;;;;;;15.80;99.90;;;;;;5088368;28;19932;-82
2022/10/28 09:04:21;;;;;;;;;;;15.80;99.90;;;;;;5072845;28;20069;-81
2022/10/28 09:06:46;;;;;;;;;;;15.80;99.90;;;;;;5070646;28;20291;-82
2022/10/28 09:09:17;;;;;;;;;;;15.80;99.90;;;;;;5088892;28;19935;-80
2022/10/28 09:11:46;;;;;;;;;;;16.50;99.90;;;;;;5089632;28;20073;-80
2022/10/28 09:14:11;;;;;;;;;;;15.90;99.90;;;;;;5088191;28;19920;-88
2022/10/28 09:16:55;;;;;;;;;;;15.90;99.90;;;;;;5088304;28;20462;-82
2022/10/28 09:19:38;;;;;;;;;;;15.90;99.90;;;;;;5072067;28;20359;-79
2022/10/28 09:22:10;;;;;;;;;;;16.00;99.90;;;;;;5064968;28;20303;-80
2022/10/28 09:24:44;;;;;;;;;;;16.00;99.90;;;;;;5089821;28;20431;-79
2022/10/28 09:27:36;;;;;;;;;;;16.00;99.90;;;;;;5089864;28;19923;-79
2022/10/28 09:30:05;;;;;;;;;;;16.10;99.90;;;;;;5081663;28;19931;-79
2022/10/28 09:32:38;;;;;;;;;;;16.10;99.90;;;;;;5095254;28;19920;-80
2022/10/28 09:35:15;;;;;;;;;;;15.00;99.90;;;;;;5089022;28;19930;-78
2022/10/28 09:37:44;;;;;;;;;;;16.10;99.90;;;;;;5088434;28;20457;-79
2022/10/28 09:40:24;;;;;;;;;;;16.10;99.90;;;;;;5071125;28;19924;-78
2022/10/28 09:43:08;;;;;;;;;;;16.10;99.90;;;;;;5067342;28;20569;-79
2022/10/28 09:45:35;;;;;;;;;;;16.10;99.90;;;;;;5068761;28;19975;-79
2022/10/28 09:48:12;;;;;;;;;;;16.10;99.90;;;;;;5087755;28;19971;-79
2022/10/28 09:50:37;;;;;;;;;;;16.10;99.90;;;;;;5085613;28;19963;-80
2022/10/28 09:53:20;;;;;;;;;;;16.90;99.90;;;;;;5071020;28;20041;-80
2022/10/28 09:55:45;;;;;;;;;;;16.20;99.90;;;;;;5087355;28;19920;-80
2022/10/28 09:58:11;;;;;;;;;;;16.20;99.90;;;;;;5087893;28;19946;-77
2022/10/28 10:00:37;;;;;;;;;;;16.20;99.90;;;;;;5085131;28;20381;-78
2022/10/28 10:03:03;;;;;;;;;;;16.30;99.90;;;;;;5087258;28;19924;-77
2022/10/28 10:05:30;;;;;;;;;;;16.30;99.90;;;;;;5087523;28;19941;-77
2022/10/28 10:08:05;;;;;;;;;;;16.80;99.90;;;;;;5089512;28;20416;-78
2022/10/28 10:10:34;;;;;;;;;;;16.30;99.90;;;;;;5087247;28;19919;-78
2022/10/28 10:13:01;;;;;;;;;;;16.40;99.90;;;;;;5083256;28;19920;-78
2022/10/28 10:15:29;;;;;;;;;;;16.40;99.90;;;;;;5087973;28;19971;-78
2022/10/28 10:17:56;;;;;;;;;;;16.50;99.90;;;;;;5083900;28;20291;-78
2022/10/28 10:20:21;;;;;;;;;;;16.50;99.90;;;;;;5083308;28;19920;-77
2022/10/28 10:22:47;;;;;;;;;;;16.70;99.90;;;;;;5080844;28;20450;-78
2022/10/28 10:25:16;;;;;;;;;;;16.60;99.90;;;;;;5085082;28;19924;-78
2022/10/28 10:27:42;;;;;;;;;;;16.60;99.90;;;;;;5080786;28;19967;-77
2022/10/28 10:30:15;;;;;;;;;;;16.70;99.90;;;;;;5062756;28;20383;-77
2022/10/28 10:32:45;;;;;;;;;;;16.70;99.90;;;;;;5088608;28;19920;-78
2022/10/28 10:35:20;;;;;;;;;;;16.80;99.90;;;;;;5079981;28;20434;-79
2022/10/28 10:37:46;;;;;;;;;;;16.80;99.90;;;;;;5086454;28;20287;-78
2022/10/28 10:40:17;;;;;;;;;;;16.90;99.90;;;;;;5087257;28;19949;-79
2022/10/28 10:42:43;;;;;;;;;;;17.00;99.90;;;;;;5069690;28;19923;-77
2022/10/28 10:45:19;;;;;;;;;;;17.10;99.90;;;;;;5070583;28;19928;-77
2022/10/28 10:47:45;;;;;;;;;;;17.20;99.90;;;;;;5087163;28;19978;-78
2022/10/28 10:50:27;;;;;;;;;;;17.30;99.90;;;;;;5088946;28;19972;-79
2022/10/28 10:52:54;;;;;;;;;;;17.30;99.90;;;;;;5073499;28;19966;-74
2022/10/28 10:55:22;;;;;;;;;;;17.30;99.90;;;;;;5092695;28;19924;-78
2022/10/28 10:57:47;;;;;;;;;;;17.30;99.90;;;;;;5091262;28;20333;-78
2022/10/28 11:00:15;;;;;;;;;;;17.40;99.90;;;;;;5074249;28;19927;-77
2022/10/28 11:02:44;;;;;;;;;;;17.40;99.90;;;;;;5091867;28;19978;-75
2022/10/28 11:05:09;;;;;;;;;;;17.40;99.90;;;;;;5098382;28;19981;-76
2022/10/28 11:07:36;;;;;;;;;;;17.40;99.90;;;;;;5074517;28;19923;-76
2022/10/28 11:10:02;;;;;;;;;;;17.50;99.90;;;;;;5092253;28;19927;-77
2022/10/28 11:12:27;;;;;;;;;;;17.50;99.90;;;;;;5073648;28;19930;-76
2022/10/28 11:14:55;;;;;;;;;;;17.60;99.90;;;;;;5091054;28;19923;-75
2022/10/28 11:17:28;;;;;;;;;;;17.60;99.90;;;;;;5090761;28;19924;-77
2022/10/28 11:19:55;;;;;;;;;;;17.70;99.90;;;;;;5074023;28;19916;-76
2022/10/28 11:22:30;;;;;;;;;;;17.70;99.90;;;;;;5092192;28;19923;-77
2022/10/28 11:24:55;;;;;;;;;;;17.80;99.90;;;;;;5091041;28;19981;-78
2022/10/28 11:27:21;;;;;;;;;;;18.90;99.90;;;;;;5089738;28;20279;-77
2022/10/28 11:29:47;;;;;;;;;;;18.70;99.90;;;;;;5091981;28;19999;-77
2022/10/28 11:32:27;;;;;;;;;;;18.10;99.90;;;;;;5089968;28;19923;-77
2022/10/28 11:34:53;;;;;;;;;;;18.20;99.90;;;;;;5089410;28;19924;-75
2022/10/28 11:37:25;;;;;;;;;;;18.30;99.90;;;;;;5092857;28;19927;-76
2022/10/28 11:39:53;;;;;;;;;;;18.30;99.90;;;;;;5091996;28;19973;-79
2022/10/28 11:42:34;;;;;;;;;;;18.40;99.90;;;;;;5093217;28;19924;-77
2022/10/28 11:45:02;;;;;;;;;;;18.50;99.90;;;;;;5093604;28;20307;-77
2022/10/28 11:47:35;;;;;;;;;;;18.50;99.90;;;;;;5093118;28;19916;-78
2022/10/28 11:50:06;;;;;;;;;;;18.60;99.90;;;;;;5092252;28;19924;-77
2022/10/28 11:52:35;;;;;;;;;;;18.70;99.90;;;;;;5094024;28;19916;-76
2022/10/28 11:55:15;;;;;;;;;;;18.70;99.90;;;;;;5091869;28;19920;-78
2022/10/28 11:57:41;;;;;;;;;;;18.80;99.90;;;;;;5093656;28;19931;-78
2022/10/28 12:00:24;;;;;;;;;;;19.60;99.90;;;;;;5092679;28;19920;-77
2022/10/28 12:02:52;;;;;;;;;;;19.00;99.90;;;;;;5092808;28;20007;-78
2022/10/28 12:05:23;;;;;;;;;;;19.00;99.90;;;;;;5093083;28;20638;-78
2022/10/28 12:08:12;;;;;;;;;;;19.00;99.90;;;;;;5091634;28;19947;-77
2022/10/28 12:10:49;;;;;;;;;;;18.70;99.90;;;;;;5086927;28;19930;-76
2022/10/28 12:13:17;;;;;;;;;;;19.00;99.90;;;;;;5075670;28;19927;-77
2022/10/28 12:15:48;;;;;;;;;;;18.90;99.90;;;;;;5093112;28;20006;-76
2022/10/28 12:18:17;;;;;;;;;;;18.90;99.90;;;;;;5093166;28;20014;-77
2022/10/28 12:21:06;;;;;;;;;;;18.90;99.90;;;;;;5093330;28;19926;-77
2022/10/28 12:23:33;;;;;;;;;;;18.90;99.90;;;;;;5086549;28;19926;-77
2022/10/28 12:25:59;;;;;;;;;;;18.90;99.90;;;;;;5091353;28;19924;-77
2022/10/28 12:28:37;;;;;;;;;;;18.80;99.90;;;;;;5091343;28;19988;-78
2022/10/28 12:31:04;;;;;;;;;;;18.80;99.90;;;;;;5092969;28;19994;-76
2022/10/28 12:33:30;;;;;;;;;;;18.70;99.90;;;;;;5093174;28;20409;-75
2022/10/28 12:36:07;;;;;;;;;;;19.10;99.90;;;;;;5095583;28;19920;-77
2022/10/28 12:38:36;;;;;;;;;;;18.70;99.90;;;;;;5094459;28;19973;-77
2022/10/28 12:41:05;;;;;;;;;;;18.70;99.90;;;;;;5091429;28;20102;-74
2022/10/28 12:43:46;;;;;;;;;;;18.70;99.90;;;;;;5073721;28;19962;-76
2022/10/28 12:46:26;;;;;;;;;;;18.70;99.90;;;;;;5091161;28;19923;-78
2022/10/28 12:48:57;;;;;;;;;;;18.70;99.90;;;;;;5093034;28;19970;-77
2022/10/28 12:51:27;;;;;;;;;;;18.70;99.90;;;;;;5088019;28;20424;-78
2022/10/28 12:53:57;;;;;;;;;;;18.80;99.90;;;;;;5092953;28;19920;-76
2022/10/28 12:56:29;;;;;;;;;;;18.70;99.90;;;;;;5101172;28;19920;-77
2022/10/28 12:59:02;;;;;;;;;;;18.60;99.90;;;;;;5091248;28;20272;-77
2022/10/28 13:01:29;;;;;;;;;;;18.70;99.90;;;;;;5087621;28;19924;-78
2022/10/28 13:03:55;;;;;;;;;;;18.70;99.90;;;;;;5091731;28;20329;-77
2022/10/28 13:06:47;;;;;;;;;;;18.70;99.90;;;;;;5091175;28;19927;-76
2022/10/28 13:09:12;;;;;;;;;;;18.70;99.90;;;;;;5089534;28;20254;-77
2022/10/28 13:11:56;;;;;;;;;;;18.80;99.90;;;;;;5090319;28;19973;-77
2022/10/28 13:14:28;;;;;;;;;;;18.80;99.90;;;;;;5091558;28;19926;-76
2022/10/28 13:16:59;;;;;;;;;;;18.80;99.90;;;;;;5074681;28;19920;-77
2022/10/28 13:19:25;;;;;;;;;;;18.80;99.90;;;;;;5081363;28;19967;-79
2022/10/28 13:21:52;;;;;;;;;;;18.80;99.90;;;;;;5085691;28;20023;-80
2022/10/28 13:24:50;;;;;;;;;;;18.80;99.90;;;;;;5090230;28;20280;-78
2022/10/28 13:27:16;;;;;;;;;;;18.90;99.90;;;;;;5046587;28;19966;-78
2022/10/28 13:29:42;;;;;;;;;;;18.90;99.90;;;;;;5089229;28;19973;-78
2022/10/28 13:32:27;;;;;;;;;;;19.70;99.90;;;;;;5088004;28;19927;-78
2022/10/28 13:34:52;;;;;;;;;;;19.00;99.90;;;;;;5084936;28;20022;-80
2022/10/28 13:37:19;;;;;;;;;;;19.10;99.90;;;;;;5086271;28;20042;-79
2022/10/28 13:39:45;;;;;;;;;;;19.10;99.90;;;;;;5066198;28;20348;-85
2022/10/28 13:42:11;;;;;;;;;;;19.10;99.90;;;;;;5089121;28;19927;-75
2022/10/28 13:44:47;;;;;;;;;;;19.30;99.90;;;;;;4371119;28;10000677;-80
2022/10/28 13:47:15;;;;;;;;;;;19.30;99.90;;;;;;5087711;28;20320;-79
2022/10/28 13:50:00;;;;;;;;;;;19.30;99.90;;;;;;5087120;28;19923;-75
2022/10/28 13:52:25;;;;;;;;;;;19.30;99.90;;;;;;5088483;28;19932;-76
2022/10/28 13:54:52;;;;;;;;;;;19.30;99.90;;;;;;5069771;28;19920;-78
2022/10/28 13:57:29;;;;;;;;;;;19.20;99.90;;;;;;5087146;28;19931;-75
2022/10/28 13:59:56;;;;;;;;;;;19.30;99.90;;;;;;5085902;28;19920;-77
2022/10/28 14:02:26;;;;;;;;;;;19.40;99.90;;;;;;5087619;28;19920;-76
2022/10/28 14:04:59;;;;;;;;;;;19.20;99.90;;;;;;5087341;28;20355;-77
2022/10/28 14:07:27;;;;;;;;;;;19.20;99.90;;;;;;5085511;28;19927;-76
2022/10/28 14:09:57;;;;;;;;;;;19.20;99.90;;;;;;5089024;28;20383;-75
2022/10/28 14:12:27;;;;;;;;;;;19.10;99.90;;;;;;5086007;28;19920;-76
2022/10/28 14:14:59;;;;;;;;;;;19.20;99.90;;;;;;5087444;28;20303;-74
2022/10/28 14:17:38;;;;;;;;;;;19.20;99.90;;;;;;5069774;28;19920;-75
2022/10/28 14:20:05;;;;;;;;;;;19.10;99.90;;;;;;5086426;28;20045;-75
2022/10/28 14:22:33;;;;;;;;;;;19.10;99.90;;;;;;5069223;28;19927;-76
2022/10/28 14:25:00;;;;;;;;;;;19.10;99.90;;;;;;5086614;28;20368;-76
2022/10/28 14:27:25;;;;;;;;;;;19.00;99.90;;;;;;5081999;28;19924;-74